createdAt,value
2023-01-19T00:00:55.080Z,3.60
2023-01-19T00:03:21.961Z,3.60
2023-01-19T00:05:48.924Z,3.60
2023-01-19T00:08:16.200Z,3.60
2023-01-19T00:10:51.158Z,3.60
2023-01-19T00:13:18.794Z,3.60
2023-01-19T00:15:45.743Z,3.50
2023-01-19T00:18:13.902Z,3.40
2023-01-19T00:20:41.475Z,3.30
2023-01-19T00:23:08.779Z,3.40
2023-01-19T00:25:42.264Z,3.40
2023-01-19T00:28:16.618Z,3.50
2023-01-19T00:30:43.781Z,3.50
2023-01-19T00:33:14.463Z,3.50
2023-01-19T00:35:42.807Z,3.50
2023-01-19T00:38:11.719Z,3.50
2023-01-19T00:40:38.662Z,3.50
2023-01-19T00:43:05.427Z,3.60
2023-01-19T00:45:42.488Z,3.50
2023-01-19T00:48:09.265Z,3.60
2023-01-19T00:50:36.416Z,3.60
2023-01-19T00:53:04.077Z,3.60
2023-01-19T00:55:33.471Z,3.60
2023-01-19T00:58:00.252Z,3.60
2023-01-19T01:00:27.223Z,3.60
2023-01-19T01:02:55.048Z,3.60
2023-01-19T01:05:22.336Z,3.50
2023-01-19T01:07:49.834Z,3.50
2023-01-19T01:10:24.396Z,3.30
2023-01-19T01:12:54.857Z,3.20
2023-01-19T01:15:26.316Z,3.20
2023-01-19T01:17:53.337Z,3.20
2023-01-19T01:20:27.939Z,3.20
2023-01-19T01:22:56.921Z,3.30
2023-01-19T01:25:27.605Z,3.30
2023-01-19T01:27:55.386Z,3.30
2023-01-19T01:30:23.366Z,3.40
2023-01-19T01:32:52.582Z,3.40
2023-01-19T01:35:19.449Z,3.40
2023-01-19T01:37:46.234Z,3.40
2023-01-19T01:40:16.887Z,3.50
2023-01-19T01:42:45.392Z,3.50
2023-01-19T01:45:32.686Z,3.50
2023-01-19T01:48:31.140Z,3.60
2023-01-19T01:51:24.047Z,3.60
2023-01-19T01:54:17.044Z,3.70
2023-01-19T01:56:49.849Z,3.70
2023-01-19T01:59:40.610Z,3.70
2023-01-19T02:02:34.233Z,3.70
2023-01-19T02:05:20.282Z,3.80
2023-01-19T02:08:30.275Z,3.80
2023-01-19T02:11:17.389Z,3.80
2023-01-19T02:13:45.090Z,3.90
2023-01-19T02:16:12.915Z,3.80
2023-01-19T02:18:40.953Z,3.80
2023-01-19T02:21:28.637Z,3.70
2023-01-19T02:24:02.911Z,3.60
2023-01-19T02:27:00.942Z,3.60
2023-01-19T02:29:29.297Z,3.60
2023-01-19T02:31:57.214Z,3.60
2023-01-19T02:34:23.997Z,3.60
2023-01-19T02:37:02.010Z,3.50
2023-01-19T02:39:54.225Z,3.50
2023-01-19T02:42:50.666Z,3.50
2023-01-19T02:45:22.553Z,3.60
2023-01-19T02:47:52.812Z,3.60
2023-01-19T02:50:56.564Z,3.70
2023-01-19T02:53:45.767Z,3.70
2023-01-19T02:56:40.148Z,3.60
2023-01-19T02:59:50.553Z,3.50
2023-01-19T03:03:19.804Z,3.50
2023-01-19T03:06:05.956Z,3.50
2023-01-19T03:08:54.973Z,3.50
2023-01-19T03:11:30.276Z,3.60
2023-01-19T03:14:19.893Z,3.50
2023-01-19T03:16:57.383Z,3.50
2023-01-19T03:19:49.652Z,3.50
2023-01-19T03:22:27.021Z,3.50
2023-01-19T03:24:59.311Z,3.50
2023-01-19T03:27:41.158Z,3.40
2023-01-19T03:30:24.151Z,3.40
2023-01-19T03:33:27.474Z,3.40
2023-01-19T03:36:03.618Z,3.30
2023-01-19T03:38:37.161Z,3.20
2023-01-19T03:41:13.375Z,3.20
2023-01-19T03:43:41.263Z,3.20
2023-01-19T03:46:11.217Z,3.20
2023-01-19T03:48:39.068Z,3.20
2023-01-19T03:51:09.602Z,3.20
2023-01-19T03:53:37.021Z,3.20
2023-01-19T03:56:04.255Z,3.10
2023-01-19T03:58:31.107Z,3.10
2023-01-19T04:00:57.894Z,3.10
2023-01-19T04:03:24.684Z,3.00
2023-01-19T04:05:51.551Z,3.00
2023-01-19T04:08:18.300Z,3.00
2023-01-19T04:10:45.144Z,3.10
2023-01-19T04:13:11.973Z,3.00
2023-01-19T04:15:38.818Z,3.00
2023-01-19T04:18:06.890Z,3.00
2023-01-19T04:20:33.754Z,3.00
2023-01-19T04:23:01.536Z,3.00
2023-01-19T04:25:28.948Z,3.00
2023-01-19T04:27:58.309Z,3.00
2023-01-19T04:30:29.517Z,3.00
2023-01-19T04:32:59.512Z,3.00
2023-01-19T04:35:26.631Z,3.00
2023-01-19T04:37:53.388Z,3.00
2023-01-19T04:40:20.570Z,3.00
2023-01-19T04:42:47.381Z,3.00
2023-01-19T04:45:14.855Z,3.00
2023-01-19T04:47:42.681Z,3.00
2023-01-19T04:50:11.418Z,3.00
2023-01-19T04:52:39.361Z,3.00
2023-01-19T04:55:09.329Z,3.00
2023-01-19T04:57:36.113Z,3.10
2023-01-19T05:00:07.499Z,3.00
2023-01-19T05:02:34.831Z,3.00
2023-01-19T05:05:02.172Z,3.10
2023-01-19T05:07:29.992Z,3.10
2023-01-19T05:09:57.212Z,3.10
2023-01-19T05:12:24.002Z,3.20
2023-01-19T05:14:50.695Z,3.20
2023-01-19T05:17:17.465Z,3.20
2023-01-19T05:19:44.238Z,3.20
2023-01-19T05:22:11.056Z,3.20
2023-01-19T05:24:37.889Z,3.30
2023-01-19T05:27:04.815Z,3.30
2023-01-19T05:29:31.610Z,3.30
2023-01-19T05:31:58.524Z,3.40
2023-01-19T05:34:25.330Z,3.40
2023-01-19T05:36:52.179Z,3.40
2023-01-19T05:39:19.122Z,3.50
2023-01-19T05:41:46.023Z,3.50
2023-01-19T05:44:13.397Z,3.50
2023-01-19T05:46:40.976Z,3.50
2023-01-19T05:49:08.249Z,3.50
2023-01-19T05:51:38.393Z,3.50
2023-01-19T05:54:06.517Z,3.60
2023-01-19T05:56:34.805Z,3.60
2023-01-19T05:59:02.347Z,3.60
2023-01-19T06:01:29.213Z,3.60
2023-01-19T06:03:56.003Z,3.60
2023-01-19T06:06:23.612Z,3.60
2023-01-19T06:08:50.375Z,3.50
2023-01-19T06:11:17.091Z,3.60
2023-01-19T06:13:43.945Z,3.60
2023-01-19T06:16:11.808Z,3.50
2023-01-19T06:18:38.895Z,3.50
2023-01-19T06:21:08.285Z,3.50
2023-01-19T06:23:36.805Z,3.60
2023-01-19T06:26:04.089Z,3.50
2023-01-19T06:28:31.411Z,3.50
2023-01-19T06:30:58.350Z,3.60
2023-01-19T06:33:25.533Z,3.50
2023-01-19T06:35:52.642Z,3.60
2023-01-19T06:38:19.729Z,3.60
2023-01-19T06:40:55.126Z,3.60
2023-01-19T06:43:22.470Z,3.50
2023-01-19T06:45:50.657Z,3.60
2023-01-19T06:48:18.237Z,3.50
2023-01-19T06:50:46.320Z,3.50
2023-01-19T06:53:16.642Z,3.60
2023-01-19T06:55:44.640Z,3.60
2023-01-19T06:58:12.513Z,3.60
2023-01-19T07:00:39.392Z,3.60
2023-01-19T07:03:07.935Z,3.60
2023-01-19T07:05:36.497Z,3.60
2023-01-19T07:08:04.202Z,3.70
2023-01-19T07:11:25.564Z,3.60
2023-01-19T07:13:17.896Z,3.60
2023-01-19T07:15:44.641Z,3.60
2023-01-19T07:18:12.473Z,3.60
2023-01-19T07:20:39.273Z,3.60
2023-01-19T07:23:07.206Z,3.60
2023-01-19T07:25:38.197Z,3.50
2023-01-19T07:28:04.972Z,3.50
2023-01-19T07:30:32.151Z,3.40
2023-01-19T07:33:01.901Z,3.30
2023-01-19T07:35:29.705Z,3.30
2023-01-19T07:37:59.227Z,3.30
2023-01-19T07:40:25.994Z,3.30
2023-01-19T07:42:52.843Z,3.30
2023-01-19T07:45:20.905Z,3.30
2023-01-19T07:47:49.916Z,3.20
2023-01-19T07:50:21.260Z,3.30
2023-01-19T07:52:50.682Z,3.30
2023-01-19T07:55:17.614Z,3.30
2023-01-19T07:57:44.548Z,3.20
2023-01-19T08:00:14.411Z,3.20
2023-01-19T08:02:41.300Z,3.20
2023-01-19T08:05:08.777Z,3.20
2023-01-19T08:07:35.725Z,3.20
2023-01-19T08:10:02.419Z,3.20
2023-01-19T08:12:29.503Z,3.20
2023-01-19T08:14:56.224Z,3.20
2023-01-19T08:17:23.096Z,3.20
2023-01-19T08:19:49.869Z,3.20
2023-01-19T08:22:16.741Z,3.20
2023-01-19T08:24:45.690Z,3.20
2023-01-19T08:27:14.558Z,3.20
2023-01-19T08:29:41.302Z,3.20
2023-01-19T08:32:08.248Z,3.10
2023-01-19T08:34:35.181Z,3.20
2023-01-19T08:37:01.895Z,3.20
2023-01-19T08:39:28.788Z,3.20
2023-01-19T08:41:55.903Z,3.30
2023-01-19T08:44:22.730Z,3.30
2023-01-19T08:46:49.538Z,3.40
2023-01-19T08:49:17.013Z,3.50
2023-01-19T08:51:46.812Z,3.50
2023-01-19T08:54:13.965Z,3.60
2023-01-19T08:56:40.819Z,3.60
2023-01-19T08:59:10.404Z,3.70
2023-01-19T09:01:38.493Z,3.70
2023-01-19T09:04:06.174Z,3.70
2023-01-19T09:06:33.246Z,3.80
2023-01-19T09:09:00.122Z,3.70
2023-01-19T09:11:27.513Z,3.70
2023-01-19T09:13:54.403Z,3.70
2023-01-19T09:16:21.354Z,3.70
2023-01-19T09:18:48.131Z,3.70
2023-01-19T09:21:15.150Z,3.70
2023-01-19T09:23:42.234Z,3.70
2023-01-19T09:26:10.929Z,3.70
2023-01-19T09:28:38.431Z,3.70
2023-01-19T09:31:08.245Z,3.70
2023-01-19T09:33:35.900Z,3.70
2023-01-19T09:36:02.828Z,3.70
2023-01-19T09:38:32.794Z,3.70
2023-01-19T09:41:00.976Z,3.70
2023-01-19T09:43:27.666Z,3.70
2023-01-19T09:46:02.669Z,3.80
2023-01-19T09:48:39.380Z,3.80
2023-01-19T09:51:19.509Z,3.90
2023-01-19T09:54:07.634Z,4.00
2023-01-19T09:56:34.559Z,4.00
2023-01-19T09:59:11.852Z,4.00
2023-01-19T10:02:19.042Z,4.20
2023-01-19T10:05:25.303Z,4.30
2023-01-19T10:08:16.536Z,4.30
2023-01-19T10:10:52.525Z,4.30
2023-01-19T10:13:48.637Z,4.40
2023-01-19T10:16:23.949Z,4.40
2023-01-19T10:18:58.263Z,4.50
2023-01-19T10:21:34.588Z,4.60
2023-01-19T10:24:29.478Z,4.60
2023-01-19T10:26:57.145Z,4.70
2023-01-19T10:29:38.377Z,4.80
2023-01-19T10:32:30.478Z,4.80
2023-01-19T10:34:59.880Z,4.90
2023-01-19T10:37:35.152Z,5.00
2023-01-19T10:40:23.845Z,5.00
2023-01-19T10:42:50.678Z,5.10
2023-01-19T10:45:21.457Z,5.30
2023-01-19T10:47:51.688Z,5.30
2023-01-19T10:50:40.704Z,5.30
2023-01-19T10:53:22.346Z,5.50
2023-01-19T10:56:42.347Z,5.50
2023-01-19T10:59:44.061Z,5.50
2023-01-19T11:02:34.571Z,5.50
2023-01-19T11:05:24.310Z,5.50
2023-01-19T11:07:51.484Z,5.50
2023-01-19T11:10:22.662Z,5.60
2023-01-19T11:13:12.626Z,5.60
2023-01-19T11:15:57.314Z,5.70
2023-01-19T11:18:34.160Z,5.70
2023-01-19T11:21:10.282Z,5.70
2023-01-19T11:23:44.721Z,5.60
2023-01-19T11:26:57.479Z,5.60
2023-01-19T11:29:27.242Z,5.60
2023-01-19T11:31:57.523Z,5.60
2023-01-19T11:34:40.304Z,5.50
2023-01-19T11:37:16.082Z,5.50
2023-01-19T11:39:53.687Z,5.50
2023-01-19T11:42:32.756Z,5.60
2023-01-19T11:45:13.155Z,5.60
2023-01-19T11:47:52.527Z,5.40
2023-01-19T11:50:43.710Z,5.30
2023-01-19T11:53:26.816Z,5.20
2023-01-19T11:56:04.942Z,5.10
2023-01-19T11:58:37.772Z,5.10
2023-01-19T12:01:20.929Z,5.00
2023-01-19T12:04:04.718Z,5.00
2023-01-19T12:06:47.653Z,4.90
2023-01-19T12:09:21.527Z,4.90
2023-01-19T12:12:06.852Z,4.90
2023-01-19T12:14:45.421Z,4.80
2023-01-19T12:17:31.958Z,4.90
2023-01-19T12:20:21.215Z,5.00
2023-01-19T12:23:02.915Z,4.90
2023-01-19T12:25:58.167Z,5.10
2023-01-19T12:28:32.974Z,5.20
2023-01-19T12:31:02.158Z,5.30
2023-01-19T12:33:33.999Z,5.40
2023-01-19T12:36:29.176Z,5.40
2023-01-19T12:39:13.441Z,5.50
2023-01-19T12:41:42.509Z,5.60
2023-01-19T12:44:13.862Z,5.50
2023-01-19T12:47:07.721Z,5.50
2023-01-19T12:49:50.759Z,5.50
2023-01-19T12:52:40.469Z,5.50
2023-01-19T12:55:13.295Z,5.50
2023-01-19T12:58:12.624Z,5.50
2023-01-19T13:01:10.837Z,5.50
2023-01-19T13:04:01.803Z,5.50
2023-01-19T13:06:50.357Z,5.30
2023-01-19T13:09:38.656Z,5.30
2023-01-19T13:12:29.298Z,5.30
2023-01-19T13:15:37.543Z,5.30
2023-01-19T13:18:04.963Z,5.30
2023-01-19T13:20:50.199Z,5.30
2023-01-19T13:23:22.355Z,5.20
2023-01-19T13:25:58.656Z,5.20
2023-01-19T13:28:37.284Z,5.20
2023-01-19T13:31:05.155Z,5.20
2023-01-19T13:33:49.823Z,5.20
2023-01-19T13:36:44.787Z,5.10
2023-01-19T13:39:24.327Z,5.10
2023-01-19T13:41:55.784Z,5.10
2023-01-19T13:44:36.445Z,5.00
2023-01-19T13:47:07.967Z,5.10
2023-01-19T13:49:44.625Z,5.10
2023-01-19T13:52:29.299Z,5.10
2023-01-19T13:55:03.468Z,5.20
2023-01-19T13:57:41.304Z,5.30
2023-01-19T14:00:20.116Z,5.20
2023-01-19T14:03:09.138Z,5.30
2023-01-19T14:05:39.168Z,5.40
2023-01-19T14:08:13.162Z,5.50
2023-01-19T14:11:02.578Z,5.60
2023-01-19T14:13:37.442Z,5.50
2023-01-19T14:16:16.132Z,5.40
2023-01-19T14:18:45.956Z,5.30
2023-01-19T14:21:19.241Z,5.30
2023-01-19T14:23:57.139Z,5.40
2023-01-19T14:26:52.089Z,5.50
2023-01-19T14:29:26.149Z,5.50
2023-01-19T14:32:10.839Z,5.50
2023-01-19T14:34:45.629Z,5.50
2023-01-19T14:37:27.265Z,5.50
2023-01-19T14:40:01.495Z,5.60
2023-01-19T14:42:39.136Z,5.50
2023-01-19T14:45:37.447Z,5.50
2023-01-19T14:48:29.070Z,5.40
2023-01-19T14:51:05.042Z,5.40
2023-01-19T14:53:38.316Z,5.40
2023-01-19T14:56:07.460Z,5.30
2023-01-19T14:58:38.427Z,5.30
2023-01-19T15:01:06.236Z,5.30
2023-01-19T15:03:48.553Z,5.40
2023-01-19T15:06:19.940Z,5.40
2023-01-19T15:08:49.930Z,5.30
2023-01-19T15:11:27.537Z,5.30
2023-01-19T15:13:55.469Z,5.30
2023-01-19T15:16:25.608Z,5.20
2023-01-19T15:18:52.579Z,5.10
2023-01-19T15:21:23.674Z,5.10
2023-01-19T15:23:50.616Z,5.10
2023-01-19T15:26:25.109Z,5.00
2023-01-19T15:28:52.725Z,5.00
2023-01-19T15:31:25.790Z,4.80
2023-01-19T15:33:52.715Z,4.80
2023-01-19T15:36:22.343Z,4.80
2023-01-19T15:38:51.907Z,4.80
2023-01-19T15:41:32.079Z,4.80
2023-01-19T15:43:59.138Z,4.70
2023-01-19T15:46:27.262Z,4.60
2023-01-19T15:48:54.859Z,4.60
2023-01-19T15:51:27.817Z,4.60
2023-01-19T15:53:55.967Z,4.60
2023-01-19T15:56:31.254Z,4.50
2023-01-19T15:58:59.224Z,4.50
2023-01-19T16:01:32.105Z,4.50
2023-01-19T16:04:02.171Z,4.50
2023-01-19T16:06:30.403Z,4.40
2023-01-19T16:09:01.437Z,4.40
2023-01-19T16:11:34.912Z,4.40
2023-01-19T16:14:02.079Z,4.30
2023-01-19T16:16:29.408Z,4.30
2023-01-19T16:18:57.650Z,4.30
2023-01-19T16:21:25.156Z,4.30
2023-01-19T16:23:52.337Z,4.20
2023-01-19T16:26:34.941Z,4.20
2023-01-19T16:29:09.735Z,4.20
2023-01-19T16:31:42.516Z,4.20
2023-01-19T16:34:10.232Z,4.00
2023-01-19T16:36:40.389Z,4.00
2023-01-19T16:39:12.044Z,4.00
2023-01-19T16:41:39.277Z,4.00
2023-01-19T16:44:07.132Z,4.00
2023-01-19T16:46:39.804Z,4.00
2023-01-19T16:49:19.911Z,4.10
2023-01-19T16:51:47.392Z,4.10
2023-01-19T16:54:18.042Z,4.00
2023-01-19T16:56:45.392Z,4.10
2023-01-19T16:59:15.863Z,4.10
2023-01-19T17:01:45.178Z,4.00
2023-01-19T17:04:13.544Z,4.00
2023-01-19T17:06:40.566Z,4.00
2023-01-19T17:09:09.408Z,3.90
2023-01-19T17:11:36.990Z,4.00
2023-01-19T17:14:23.973Z,3.90
2023-01-19T17:16:50.853Z,3.90
2023-01-19T17:19:21.782Z,3.80
2023-01-19T17:21:51.128Z,3.80
2023-01-19T17:24:18.408Z,3.70
2023-01-19T17:26:48.418Z,3.60
2023-01-19T17:29:16.289Z,3.60
2023-01-19T17:31:44.001Z,3.50
2023-01-19T17:34:10.900Z,3.60
2023-01-19T17:36:38.118Z,3.50
2023-01-19T17:39:08.567Z,3.50
2023-01-19T17:41:36.451Z,3.50
2023-01-19T17:44:05.786Z,3.50
2023-01-19T17:46:36.911Z,3.40
2023-01-19T17:49:07.387Z,3.40
2023-01-19T17:51:34.951Z,3.40
2023-01-19T17:54:02.081Z,3.40
2023-01-19T17:56:36.465Z,3.30
2023-01-19T17:59:06.402Z,3.30
2023-01-19T18:01:33.907Z,3.30
2023-01-19T18:04:02.507Z,3.30
2023-01-19T18:06:29.433Z,3.30
2023-01-19T18:08:58.340Z,3.00
2023-01-19T18:11:27.008Z,2.90
2023-01-19T18:13:54.084Z,3.00
2023-01-19T18:16:24.998Z,3.00
2023-01-19T18:18:54.311Z,3.00
2023-01-19T18:21:23.766Z,3.10
2023-01-19T18:23:51.216Z,3.10
2023-01-19T18:26:22.160Z,3.10
2023-01-19T18:28:49.979Z,3.10
2023-01-19T18:31:19.182Z,3.10
2023-01-19T18:33:48.181Z,3.10
2023-01-19T18:36:18.955Z,3.10
2023-01-19T18:38:45.833Z,3.10
2023-01-19T18:41:35.359Z,3.10
2023-01-19T18:44:05.145Z,3.20
2023-01-19T18:46:33.815Z,3.20
2023-01-19T18:49:00.680Z,3.20
2023-01-19T18:51:27.917Z,3.20
2023-01-19T18:53:56.878Z,3.10
2023-01-19T18:56:25.695Z,3.10
2023-01-19T18:58:53.397Z,3.00
2023-01-19T19:01:35.110Z,3.00
2023-01-19T19:04:05.727Z,2.90
2023-01-19T19:06:32.553Z,2.90
2023-01-19T19:09:01.994Z,2.90
2023-01-19T19:11:28.928Z,2.80
2023-01-19T19:14:00.293Z,2.80
2023-01-19T19:16:34.017Z,2.70
2023-01-19T19:19:01.871Z,2.70
2023-01-19T19:21:28.653Z,2.70
2023-01-19T19:23:58.391Z,2.60
2023-01-19T19:26:28.128Z,2.60
2023-01-19T19:28:55.337Z,2.50
2023-01-19T19:31:26.105Z,2.50
2023-01-19T19:33:53.715Z,2.50
2023-01-19T19:36:23.214Z,2.50
2023-01-19T19:38:51.154Z,2.40
2023-01-19T19:41:23.024Z,2.40
2023-01-19T19:43:50.260Z,2.30
2023-01-19T19:46:20.163Z,2.20
2023-01-19T19:48:48.661Z,2.30
2023-01-19T19:51:27.634Z,2.20
2023-01-19T19:53:59.918Z,2.30
2023-01-19T19:56:30.574Z,2.20
2023-01-19T19:58:59.467Z,2.30
2023-01-19T20:01:32.622Z,2.40
2023-01-19T20:04:10.115Z,2.40
2023-01-19T20:06:41.392Z,2.50
2023-01-19T20:09:12.586Z,2.40
2023-01-19T20:11:42.512Z,2.40
2023-01-19T20:14:12.093Z,2.40
2023-01-19T20:16:39.226Z,2.30
2023-01-19T20:19:06.709Z,2.40
2023-01-19T20:21:43.699Z,2.40
2023-01-19T20:24:16.414Z,2.40
2023-01-19T20:26:51.543Z,2.40
2023-01-19T20:29:19.825Z,2.50
2023-01-19T20:31:52.432Z,2.40
2023-01-19T20:34:22.689Z,2.60
2023-01-19T20:36:51.169Z,2.60
2023-01-19T20:39:20.499Z,2.50
2023-01-19T20:41:50.173Z,2.50
2023-01-19T20:44:24.393Z,2.40
2023-01-19T20:46:53.120Z,2.40
2023-01-19T20:49:20.222Z,2.30
2023-01-19T20:51:47.449Z,2.30
2023-01-19T20:54:18.188Z,2.10
2023-01-19T20:56:45.225Z,2.20
2023-01-19T20:59:13.040Z,2.30
2023-01-19T21:01:41.525Z,2.30
2023-01-19T21:04:09.734Z,2.40
2023-01-19T21:06:37.167Z,2.40
2023-01-19T21:09:04.556Z,2.40
2023-01-19T21:11:31.627Z,2.40
2023-01-19T21:13:58.590Z,2.30
2023-01-19T21:16:29.438Z,2.30
2023-01-19T21:18:56.424Z,2.40
2023-01-19T21:21:30.932Z,2.50
2023-01-19T21:24:02.354Z,2.50
2023-01-19T21:26:30.393Z,2.60
2023-01-19T21:28:59.317Z,2.50
2023-01-19T21:31:28.079Z,2.50
2023-01-19T21:33:56.703Z,2.50
2023-01-19T21:36:25.272Z,2.60
2023-01-19T21:38:52.713Z,2.60
2023-01-19T21:41:19.880Z,2.60
2023-01-19T21:43:46.798Z,2.50
2023-01-19T21:46:22.006Z,2.60
2023-01-19T21:48:49.196Z,2.50
2023-01-19T21:51:16.110Z,2.50
2023-01-19T21:53:45.519Z,2.40
2023-01-19T21:56:12.402Z,2.40
2023-01-19T21:58:39.204Z,2.40
2023-01-19T22:01:10.838Z,2.30
2023-01-19T22:03:38.048Z,2.20
2023-01-19T22:06:07.815Z,2.20
2023-01-19T22:08:35.318Z,2.10
2023-01-19T22:11:05.335Z,2.10
2023-01-19T22:13:33.823Z,2.00
2023-01-19T22:16:03.192Z,2.00
2023-01-19T22:18:30.971Z,2.00
2023-01-19T22:21:15.889Z,2.00
2023-01-19T22:23:44.317Z,2.10
2023-01-19T22:26:11.927Z,2.00
2023-01-19T22:28:38.817Z,2.10
2023-01-19T22:31:18.319Z,2.10
2023-01-19T22:33:45.747Z,2.10
2023-01-19T22:36:16.875Z,2.00
2023-01-19T22:38:44.730Z,2.10
2023-01-19T22:41:13.472Z,2.00
2023-01-19T22:43:40.237Z,2.00
2023-01-19T22:46:08.744Z,2.00
2023-01-19T22:48:36.367Z,2.00
2023-01-19T22:51:03.696Z,2.00
2023-01-19T22:53:32.349Z,2.00
2023-01-19T22:55:59.436Z,2.00
2023-01-19T22:58:26.307Z,1.90
2023-01-19T23:00:53.145Z,2.00
2023-01-19T23:03:20.024Z,2.00
2023-01-19T23:05:46.805Z,1.90
2023-01-19T23:08:13.535Z,2.00
2023-01-19T23:10:40.417Z,1.90
2023-01-19T23:13:07.212Z,2.00
2023-01-19T23:15:34.815Z,2.00
2023-01-19T23:18:01.643Z,2.10
2023-01-19T23:20:28.602Z,2.00
2023-01-19T23:22:55.403Z,2.10
2023-01-19T23:25:22.233Z,2.00
2023-01-19T23:27:49.006Z,2.00
2023-01-19T23:30:16.138Z,2.10
2023-01-19T23:32:48.140Z,2.10
2023-01-19T23:35:16.058Z,2.10
2023-01-19T23:37:43.194Z,2.00
2023-01-19T23:40:11.377Z,2.00
2023-01-19T23:42:38.315Z,2.00
2023-01-19T23:45:06.165Z,1.90
2023-01-19T23:47:35.562Z,2.00
2023-01-19T23:50:05.277Z,1.90
2023-01-19T23:52:32.082Z,1.80
2023-01-19T23:54:58.832Z,1.80
2023-01-19T23:57:25.965Z,1.90
2023-01-19T23:59:52.722Z,1.90
